Time;durP1;ratioP1;P1;durP2;ratioP2;P2;SDS_P1;SDS_P2;PMS_P1;PMS_P2;Temp;Humidity;BMP_temperature;BMP_pressure;BME280_temperature;BME280_humidity;BME280_pressure;Samples;Min_cycle;Max_cycle;Signal;HPM_P1;HPM_P2
2023/01/09 00:01:46;;;;;;;8.45;2.67;;;8.20;99.90;;;;;;5033030;28;20512;-76
2023/01/09 00:04:13;;;;;;;5.82;2.80;;;8.20;99.90;;;;;;5031219;28;20207;-76
2023/01/09 00:06:41;;;;;;;7.13;2.50;;;8.30;99.90;;;;;;5068904;28;20223;-76
2023/01/09 00:09:07;;;;;;;6.38;2.25;;;8.30;99.90;;;;;;5031919;28;20223;-76
2023/01/09 00:11:33;;;;;;;4.75;2.58;;;8.30;99.90;;;;;;5033670;28;20188;-78
2023/01/09 00:13:59;;;;;;;6.32;2.63;;;8.30;99.90;;;;;;5032568;28;20234;-77
2023/01/09 00:16:24;;;;;;;5.80;2.80;;;8.40;99.90;;;;;;5033448;28;20306;-76
2023/01/09 00:18:52;;;;;;;5.05;2.50;;;8.40;99.90;;;;;;5042271;28;20183;-78
2023/01/09 00:21:18;;;;;;;4.70;2.15;;;8.40;99.90;;;;;;5027036;28;20187;-75
2023/01/09 00:23:45;;;;;;;7.53;2.25;;;8.40;99.90;;;;;;5055134;28;20179;-76
2023/01/09 00:26:13;;;;;;;6.25;2.05;;;8.40;99.90;;;;;;5033012;28;20219;-78
2023/01/09 00:28:39;;;;;;;3.60;1.63;;;8.50;99.90;;;;;;5032733;28;20238;-77
2023/01/09 00:31:07;;;;;;;3.50;1.83;;;8.40;99.90;;;;;;5032244;28;20184;-77
2023/01/09 00:33:47;;;;;;;2.60;1.55;;;8.40;99.90;;;;;;5048243;28;20191;-76
2023/01/09 00:36:12;;;;;;;2.50;1.45;;;8.40;99.90;;;;;;5033090;28;20171;-76
2023/01/09 00:38:39;;;;;;;2.60;1.40;;;8.40;99.90;;;;;;5046137;28;20647;-75
2023/01/09 00:41:08;;;;;;;2.28;1.20;;;8.30;99.90;;;;;;5065771;28;20184;-75
2023/01/09 00:43:41;;;;;;;2.05;1.00;;;8.30;99.90;;;;;;5032329;28;20651;-76
2023/01/09 00:46:07;;;;;;;1.67;0.95;;;8.30;99.90;;;;;;5034801;28;20683;-76
2023/01/09 00:48:36;;;;;;;1.48;0.77;;;8.30;99.90;;;;;;5032066;28;20188;-75
2023/01/09 00:51:02;;;;;;;3.45;1.10;;;8.30;99.90;;;;;;5029738;28;20199;-75
2023/01/09 00:53:31;;;;;;;1.92;0.80;;;8.30;99.90;;;;;;5053323;28;20184;-75
2023/01/09 00:56:00;;;;;;;3.38;1.00;;;8.30;99.90;;;;;;5033253;28;20271;-75
2023/01/09 00:58:27;;;;;;;3.50;0.90;;;8.30;99.90;;;;;;5032081;28;20317;-76
2023/01/09 01:00:52;;;;;;;1.17;0.80;;;8.30;99.90;;;;;;5032162;28;20271;-77
2023/01/09 01:03:18;;;;;;;1.48;0.95;;;8.20;99.90;;;;;;5028270;28;20337;-76
2023/01/09 01:08:28;;;;;;;2.10;1.02;;;8.20;99.90;;;;;;5030201;28;20253;-76
2023/01/09 01:10:54;;;;;;;3.22;1.17;;;8.20;99.90;;;;;;5048254;28;20490;-76
2023/01/09 01:13:20;;;;;;;2.20;0.80;;;8.20;99.90;;;;;;5031173;28;20227;-77
2023/01/09 01:15:46;;;;;;;2.28;1.02;;;8.20;99.90;;;;;;5031002;28;20203;-75
2023/01/09 01:18:12;;;;;;;3.58;1.05;;;8.10;99.90;;;;;;5047950;28;20180;-75
2023/01/09 01:20:43;;;;;;;1.65;0.90;;;8.10;99.90;;;;;;5051011;28;20274;-76
2023/01/09 01:23:09;;;;;;;1.38;0.80;;;8.10;99.90;;;;;;5051251;28;20205;-76
2023/01/09 01:25:40;;;;;;;1.67;0.80;;;8.10;99.90;;;;;;5023914;28;20216;-76
2023/01/09 01:28:06;;;;;;;1.10;1.00;;;8.10;99.90;;;;;;5044941;28;20177;-76
2023/01/09 01:30:32;;;;;;;2.35;0.77;;;8.10;99.90;;;;;;5041568;28;20542;-76
2023/01/09 01:32:59;;;;;;;2.25;0.90;;;8.10;99.90;;;;;;5031698;28;20180;-75
2023/01/09 01:35:25;;;;;;;1.15;0.80;;;8.10;99.90;;;;;;5031212;28;20245;-76
2023/01/09 01:37:51;;;;;;;2.88;0.90;;;8.00;99.90;;;;;;5031292;28;20184;-76
2023/01/09 01:40:17;;;;;;;2.13;1.10;;;8.00;99.90;;;;;;5039581;28;20721;-76
2023/01/09 01:42:48;;;;;;;2.03;0.80;;;8.00;99.90;;;;;;5039512;28;20216;-76
2023/01/09 01:45:23;;;;;;;3.15;1.00;;;8.00;99.90;;;;;;5031792;28;20690;-75
2023/01/09 01:48:15;;;;;;;1.55;1.10;;;8.00;99.90;;;;;;5032629;28;20206;-76
2023/01/09 01:50:44;;;;;;;2.05;1.17;;;8.00;99.90;;;;;;5040028;28;20190;-77
2023/01/09 01:53:15;;;;;;;3.03;1.50;;;8.00;99.90;;;;;;5053164;28;20184;-76
2023/01/09 01:55:45;;;;;;;2.35;1.25;;;8.00;99.90;;;;;;5047435;28;20194;-77
2023/01/09 01:58:14;;;;;;;3.25;1.38;;;8.00;99.90;;;;;;5032619;28;20164;-77
2023/01/09 02:00:44;;;;;;;2.40;1.48;;;8.10;99.90;;;;;;5035071;28;20175;-76
2023/01/09 02:03:13;;;;;;;2.95;2.00;;;8.00;99.90;;;;;;5051356;28;20627;-76
2023/01/09 02:05:40;;;;;;;4.63;1.92;;;8.00;99.90;;;;;;5050594;28;20349;-76
2023/01/09 02:08:07;;;;;;;5.38;2.10;;;8.00;99.90;;;;;;5043539;28;20183;-80
2023/01/09 02:10:33;;;;;;;5.45;2.05;;;8.00;99.90;;;;;;5018492;28;20184;-79
2023/01/09 02:13:00;;;;;;;7.80;2.47;;;8.00;99.90;;;;;;5016559;28;20210;-77
2023/01/09 02:15:30;;;;;;;3.97;1.80;;;8.00;99.90;;;;;;5050957;28;20187;-78
2023/01/09 02:18:19;;;;;;;3.35;1.98;;;8.00;99.90;;;;;;5017050;28;20177;-81
2023/01/09 02:20:56;;;;;;;4.97;2.05;;;8.10;99.90;;;;;;5031268;28;20187;-80
2023/01/09 02:23:25;;;;;;;4.85;2.00;;;8.10;99.90;;;;;;5048215;28;20186;-77
2023/01/09 02:26:05;;;;;;;4.15;2.17;;;8.00;99.90;;;;;;5020860;28;20205;-80
2023/01/09 02:29:05;;;;;;;11.95;2.33;;;8.00;99.90;;;;;;5020694;28;20184;-83
2023/01/09 02:31:56;;;;;;;8.75;2.40;;;8.00;99.90;;;;;;5018854;28;20247;-81
2023/01/09 02:34:47;;;;;;;3.65;2.13;;;8.00;99.90;;;;;;5036362;28;20286;-77
2023/01/09 02:37:42;;;;;;;7.35;2.60;;;8.00;99.90;;;;;;5020238;28;20168;-78
2023/01/09 02:40:31;;;;;;;3.85;2.03;;;8.00;99.90;;;;;;5021751;28;20172;-78
2023/01/09 02:42:59;;;;;;;4.40;2.45;;;7.90;99.90;;;;;;5018975;28;20204;-80
2023/01/09 02:45:25;;;;;;;3.70;2.13;;;7.90;99.90;;;;;;5033062;28;20216;-79
2023/01/09 02:47:51;;;;;;;6.65;2.53;;;7.90;99.90;;;;;;5051000;28;20188;-81
2023/01/09 02:50:26;;;;;;;8.40;2.67;;;7.90;99.90;;;;;;5023111;28;20666;-78
2023/01/09 02:53:01;;;;;;;4.97;2.55;;;7.90;99.90;;;;;;5023252;28;20276;-77
2023/01/09 02:55:40;;;;;;;4.70;2.20;;;7.90;99.90;;;;;;5018110;28;20205;-79
2023/01/09 02:58:15;;;;;;;5.78;2.45;;;7.80;99.90;;;;;;5017970;28;20176;-80
2023/01/09 03:00:51;;;;;;;8.55;2.25;;;7.80;99.90;;;;;;5019291;28;21244;-81
2023/01/09 03:03:39;;;;;;;6.78;2.30;;;7.80;99.90;;;;;;5032988;28;22676;-76
2023/01/09 03:06:13;;;;;;;5.03;1.98;;;7.80;99.90;;;;;;5018256;28;20298;-78
2023/01/09 03:08:45;;;;;;;8.35;2.42;;;7.70;99.90;;;;;;5035866;28;20183;-75
2023/01/09 03:11:11;;;;;;;7.80;2.55;;;7.80;99.90;;;;;;5025374;28;20274;-75
2023/01/09 03:14:17;;;;;;;6.95;2.20;;;7.70;99.90;;;;;;5019982;28;20701;-78
2023/01/09 03:16:47;;;;;;;8.82;2.65;;;7.70;99.90;;;;;;5012264;28;20211;-75
2023/01/09 03:19:20;;;;;;;7.65;2.58;;;7.70;99.90;;;;;;5030816;28;20241;-80
2023/01/09 03:21:47;;;;;;;8.88;2.70;;;7.60;99.90;;;;;;5030080;28;20477;-80
2023/01/09 03:24:13;;;;;;;9.50;2.47;;;7.60;99.90;;;;;;5033586;28;20285;-76
2023/01/09 03:26:39;;;;;;;8.02;2.65;;;7.60;99.90;;;;;;5032536;28;20223;-79
2023/01/09 03:29:05;;;;;;;6.03;2.85;;;7.60;99.90;;;;;;5018068;28;20192;-80
2023/01/09 03:31:31;;;;;;;4.63;2.15;;;7.60;99.90;;;;;;5017947;28;20195;-80
2023/01/09 03:33:57;;;;;;;7.78;2.83;;;7.60;99.90;;;;;;5047437;28;20215;-82
2023/01/09 03:36:23;;;;;;;6.32;2.60;;;7.50;99.90;;;;;;5030248;28;20196;-80
2023/01/09 03:38:50;;;;;;;8.15;2.88;;;7.50;99.90;;;;;;5019452;28;20190;-76
2023/01/09 03:41:16;;;;;;;9.27;2.75;;;7.50;99.90;;;;;;5030244;28;20251;-77
2023/01/09 03:43:42;;;;;;;8.55;3.05;;;7.40;99.90;;;;;;5017695;28;20936;-76
2023/01/09 03:46:08;;;;;;;7.05;2.88;;;7.40;99.90;;;;;;5016099;28;20212;-78
2023/01/09 03:48:34;;;;;;;10.00;3.05;;;7.40;99.90;;;;;;5028458;28;20582;-82
2023/01/09 03:50:59;;;;;;;8.68;2.70;;;7.40;99.90;;;;;;5018661;28;20184;-79
2023/01/09 03:53:26;;;;;;;6.78;2.75;;;7.40;99.90;;;;;;5017519;28;20222;-81
2023/01/09 03:55:54;;;;;;;11.63;3.40;;;7.30;99.90;;;;;;5019326;28;20596;-81
2023/01/09 03:58:21;;;;;;;7.13;2.65;;;7.30;99.90;;;;;;5048246;28;20187;-78
2023/01/09 04:00:48;;;;;;;7.95;2.95;;;7.20;99.90;;;;;;5017262;28;20295;-80
2023/01/09 04:03:15;;;;;;;7.07;3.00;;;7.20;99.90;;;;;;5048517;28;20283;-78
2023/01/09 04:05:42;;;;;;;10.52;3.03;;;7.10;99.90;;;;;;5018671;28;20216;-81
2023/01/09 04:08:07;;;;;;;8.63;3.30;;;7.20;99.90;;;;;;5020381;28;21145;-80
2023/01/09 04:10:33;;;;;;;6.68;2.85;;;7.20;99.90;;;;;;5051652;28;20196;-82
2023/01/09 04:12:59;;;;;;;11.50;3.67;;;7.10;99.90;;;;;;4997593;28;20196;-78
2023/01/09 04:15:25;;;;;;;10.35;3.70;;;7.10;99.90;;;;;;5030520;28;20244;-81
2023/01/09 04:17:51;;;;;;;7.68;3.92;;;7.10;99.90;;;;;;5017221;28;20203;-79
2023/01/09 04:20:17;;;;;;;7.82;3.55;;;7.10;99.90;;;;;;5017299;28;20199;-81
2023/01/09 04:22:43;;;;;;;11.18;3.90;;;7.10;99.90;;;;;;5017907;28;20722;-78
2023/01/09 04:25:10;;;;;;;6.80;3.67;;;7.00;99.90;;;;;;5017744;28;20203;-77
2023/01/09 04:27:36;;;;;;;8.10;3.35;;;7.10;99.90;;;;;;5017647;28;20232;-81
2023/01/09 04:30:01;;;;;;;10.23;4.15;;;7.00;99.90;;;;;;5017089;28;20595;-80
2023/01/09 04:32:27;;;;;;;12.60;3.85;;;6.90;99.90;;;;;;5016214;28;20230;-78
2023/01/09 04:34:54;;;;;;;10.65;4.35;;;6.90;99.90;;;;;;5017489;28;20542;-81
2023/01/09 04:37:20;;;;;;;9.95;4.53;;;6.90;99.90;;;;;;5015683;28;20191;-83
2023/01/09 04:39:46;;;;;;;9.25;3.97;;;6.90;99.90;;;;;;5017003;28;20192;-82
2023/01/09 04:42:12;;;;;;;7.38;4.32;;;6.80;99.90;;;;;;5033074;28;20188;-78
2023/01/09 04:44:38;;;;;;;13.35;4.45;;;6.90;99.90;;;;;;5017452;28;20214;-80
2023/01/09 04:47:04;;;;;;;12.35;4.53;;;6.90;99.90;;;;;;5017727;28;22763;-78
2023/01/09 04:49:29;;;;;;;10.60;4.38;;;6.80;99.90;;;;;;5019521;28;20211;-78
2023/01/09 04:51:55;;;;;;;8.10;4.45;;;6.80;99.90;;;;;;5034565;28;20180;-81
2023/01/09 04:54:21;;;;;;;11.73;4.72;;;6.80;99.90;;;;;;5049239;28;20214;-77
2023/01/09 04:56:47;;;;;;;11.98;4.97;;;6.80;99.90;;;;;;5048143;28;20195;-78
2023/01/09 04:59:13;;;;;;;10.07;4.88;;;6.70;99.90;;;;;;5047345;28;20221;-79
2023/01/09 05:01:39;;;;;;;10.27;4.88;;;6.80;99.90;;;;;;5014880;28;20248;-82
2023/01/09 05:04:06;;;;;;;13.85;5.40;;;6.70;99.90;;;;;;5029126;28;20279;-83
2023/01/09 05:06:33;;;;;;;8.18;4.55;;;6.70;99.90;;;;;;5031605;28;20215;-76
2023/01/09 05:08:59;;;;;;;13.82;5.07;;;6.70;99.90;;;;;;5007482;28;20249;-79
2023/01/09 05:11:25;;;;;;;11.02;5.78;;;6.70;99.90;;;;;;5047751;28;20202;-78
2023/01/09 05:13:51;;;;;;;10.55;5.95;;;6.60;99.90;;;;;;5016611;28;20232;-81
2023/01/09 05:16:19;;;;;;;12.15;6.05;;;6.60;99.90;;;;;;5028138;28;20301;-79
2023/01/09 05:18:44;;;;;;;14.15;5.93;;;6.60;99.90;;;;;;5017947;28;20194;-81
2023/01/09 05:21:11;;;;;;;14.93;6.70;;;6.60;99.90;;;;;;5015341;28;20562;-77
2023/01/09 05:23:37;;;;;;;18.60;7.22;;;6.60;99.90;;;;;;5016769;28;20274;-77
2023/01/09 05:26:05;;;;;;;14.65;7.30;;;6.60;99.90;;;;;;5014301;28;20684;-78
2023/01/09 05:28:31;;;;;;;17.20;7.97;;;6.60;99.90;;;;;;5030479;28;20184;-80
2023/01/09 05:30:57;;;;;;;14.07;8.13;;;6.60;99.90;;;;;;5016747;28;20234;-77
2023/01/09 05:33:24;;;;;;;14.88;8.90;;;6.60;99.90;;;;;;5028357;28;20282;-78
2023/01/09 05:35:49;;;;;;;17.85;9.25;;;6.60;99.90;;;;;;5015235;28;20207;-80
2023/01/09 05:38:15;;;;;;;13.65;9.52;;;6.60;99.90;;;;;;5016569;28;20735;-76
2023/01/09 05:40:41;;;;;;;20.48;9.95;;;6.70;99.90;;;;;;5017421;28;20191;-80
2023/01/09 05:43:07;;;;;;;16.27;10.30;;;6.70;99.90;;;;;;5026335;28;20607;-77
2023/01/09 05:45:33;;;;;;;13.73;10.50;;;6.70;99.90;;;;;;5017143;28;21171;-81
2023/01/09 05:47:59;;;;;;;19.92;11.10;;;6.70;99.90;;;;;;5016612;28;20196;-81
2023/01/09 05:50:26;;;;;;;19.65;11.75;;;6.70;99.90;;;;;;5017936;28;21156;-77
2023/01/09 05:52:52;;;;;;;17.38;11.07;;;6.70;99.90;;;;;;5016475;28;20203;-77
2023/01/09 05:55:17;;;;;;;20.30;11.68;;;6.70;99.90;;;;;;5029881;28;20510;-77
2023/01/09 05:57:43;;;;;;;22.80;12.23;;;6.70;99.90;;;;;;5016634;28;20202;-78
2023/01/09 06:00:10;;;;;;;21.42;12.35;;;6.70;99.90;;;;;;5016774;28;20199;-79
2023/01/09 06:02:36;;;;;;;24.98;12.88;;;6.70;99.90;;;;;;5044131;28;20192;-78
2023/01/09 06:05:02;;;;;;;19.88;13.25;;;6.80;99.90;;;;;;5032157;28;20632;-81
2023/01/09 06:07:27;;;;;;;21.73;14.05;;;6.70;99.90;;;;;;5020389;28;20200;-76
2023/01/09 06:09:53;;;;;;;28.15;13.93;;;6.80;99.90;;;;;;5031101;28;20184;-81
2023/01/09 06:12:19;;;;;;;30.10;13.85;;;6.80;99.90;;;;;;5014985;28;20586;-78
2023/01/09 06:14:44;;;;;;;25.95;14.55;;;6.80;99.90;;;;;;5051699;28;20614;-81
2023/01/09 06:17:10;;;;;;;24.23;15.40;;;6.80;99.90;;;;;;5051681;28;20183;-80
2023/01/09 06:19:36;;;;;;;29.98;15.30;;;6.80;99.90;;;;;;5019773;28;20267;-79
2023/01/09 06:22:02;;;;;;;23.52;11.95;;;6.80;99.90;;;;;;5020932;28;20275;-81
2023/01/09 06:24:28;;;;;;;25.50;14.90;;;6.80;99.90;;;;;;5022453;28;20230;-77
2023/01/09 06:26:53;;;;;;;24.63;15.55;;;6.90;99.90;;;;;;5020799;28;20671;-77
2023/01/09 06:29:19;;;;;;;24.80;15.82;;;6.80;99.90;;;;;;5032519;28;20523;-82
2023/01/09 06:31:45;;;;;;;27.17;16.50;;;6.80;99.90;;;;;;5017352;28;20184;-78
2023/01/09 06:34:11;;;;;;;26.50;15.68;;;6.90;99.90;;;;;;5052700;28;20187;-81
2023/01/09 06:36:37;;;;;;;25.42;16.52;;;6.90;99.90;;;;;;5032046;28;20687;-81
2023/01/09 06:39:03;;;;;;;28.30;16.45;;;6.90;99.90;;;;;;5020575;28;20283;-78
2023/01/09 06:41:29;;;;;;;29.75;16.77;;;6.90;99.90;;;;;;5052691;28;20214;-80
2023/01/09 06:43:54;;;;;;;25.38;17.13;;;6.90;99.90;;;;;;5022117;28;20195;-79
2023/01/09 06:46:20;;;;;;;26.65;16.58;;;7.00;99.90;;;;;;5020648;28;20356;-80
2023/01/09 06:48:46;;;;;;;27.38;16.17;;;6.90;99.90;;;;;;5054882;28;21190;-81
2023/01/09 06:51:12;;;;;;;27.17;16.40;;;6.90;99.90;;;;;;5021753;28;20238;-77
2023/01/09 06:53:38;;;;;;;27.40;15.80;;;7.00;99.90;;;;;;5032776;28;20447;-79
2023/01/09 06:56:04;;;;;;;27.65;16.52;;;7.00;99.90;;;;;;5032331;28;20192;-77
2023/01/09 06:58:29;;;;;;;26.35;15.60;;;7.00;99.90;;;;;;5034193;28;20195;-78
2023/01/09 07:00:57;;;;;;;25.77;15.45;;;7.00;99.90;;;;;;5022506;28;21713;-77
2023/01/09 07:03:23;;;;;;;29.48;16.58;;;7.00;99.90;;;;;;5054511;28;20180;-81
2023/01/09 07:05:49;;;;;;;25.80;16.17;;;7.00;99.90;;;;;;5029913;28;20901;-79
2023/01/09 07:08:15;;;;;;;22.90;14.77;;;7.00;99.90;;;;;;5026959;28;20230;-77
2023/01/09 07:10:44;;;;;;;24.35;16.23;;;7.00;99.90;;;;;;5045515;28;20560;-77
2023/01/09 07:13:10;;;;;;;23.20;14.10;;;7.00;99.90;;;;;;5034290;28;20188;-76
2023/01/09 07:15:36;;;;;;;29.70;15.88;;;7.00;99.90;;;;;;5035271;28;20235;-77
2023/01/09 07:18:02;;;;;;;24.85;15.32;;;7.00;99.90;;;;;;5033740;28;20184;-77
2023/01/09 07:20:28;;;;;;;24.40;15.43;;;7.00;99.90;;;;;;5039955;28;20266;-76
2023/01/09 07:22:54;;;;;;;28.75;15.40;;;6.90;99.90;;;;;;5028479;28;20279;-82
2023/01/09 07:25:20;;;;;;;27.85;15.73;;;7.00;99.90;;;;;;5015100;28;20211;-81
2023/01/09 07:27:45;;;;;;;26.10;14.98;;;6.90;99.90;;;;;;5019134;28;20342;-81
2023/01/09 07:30:12;;;;;;;24.33;14.75;;;6.90;99.90;;;;;;5022128;28;20187;-78
2023/01/09 07:32:39;;;;;;;27.95;15.25;;;6.90;99.90;;;;;;5022334;28;20188;-80
2023/01/09 07:35:09;;;;;;;24.85;14.40;;;6.90;99.90;;;;;;5019560;28;20227;-79
2023/01/09 07:37:35;;;;;;;24.75;15.20;;;6.90;99.90;;;;;;5018748;28;20195;-78
2023/01/09 07:40:01;;;;;;;23.50;14.07;;;7.00;99.90;;;;;;5030934;28;20184;-80
2023/01/09 07:42:27;;;;;;;24.45;14.77;;;6.90;99.90;;;;;;5019787;28;20223;-81
2023/01/09 07:44:52;;;;;;;22.63;14.48;;;6.90;99.90;;;;;;5051141;28;20298;-81
2023/01/09 07:47:18;;;;;;;23.50;13.68;;;7.00;99.90;;;;;;5018808;28;20187;-77
2023/01/09 07:49:44;;;;;;;22.95;13.57;;;6.90;99.90;;;;;;5019703;28;20184;-77
2023/01/09 07:52:10;;;;;;;22.65;12.70;;;6.90;99.90;;;;;;5018749;28;20199;-78
2023/01/09 07:54:36;;;;;;;21.63;12.00;;;6.90;99.90;;;;;;5022144;28;20180;-79
2023/01/09 07:57:01;;;;;;;19.10;11.80;;;6.90;99.90;;;;;;5025641;28;20207;-84
2023/01/09 07:59:28;;;;;;;18.20;11.23;;;6.90;99.90;;;;;;5020455;28;20780;-78
2023/01/09 08:01:55;;;;;;;19.48;10.85;;;6.90;99.90;;;;;;5021130;28;20258;-76
2023/01/09 08:04:20;;;;;;;13.90;9.85;;;6.90;99.90;;;;;;5023356;28;20190;-82
2023/01/09 08:06:46;;;;;;;17.42;10.27;;;6.90;99.90;;;;;;5035264;28;20215;-83
2023/01/09 08:09:13;;;;;;;22.13;9.73;;;6.90;99.90;;;;;;5023936;28;20274;-79
2023/01/09 08:11:40;;;;;;;17.33;10.00;;;6.90;99.90;;;;;;5023396;28;20196;-80
2023/01/09 08:14:06;;;;;;;18.38;9.13;;;6.90;99.90;;;;;;5034769;28;20266;-77
2023/01/09 08:16:31;;;;;;;16.52;9.65;;;6.90;99.90;;;;;;5021153;28;20321;-78
2023/01/09 08:18:57;;;;;;;17.55;9.38;;;6.90;99.90;;;;;;5039085;28;20246;-85
2023/01/09 08:21:23;;;;;;;14.50;9.27;;;6.90;99.90;;;;;;5018944;28;20212;-79
2023/01/09 08:23:49;;;;;;;15.48;9.02;;;6.90;99.90;;;;;;5024048;28;20227;-77
2023/01/09 08:26:15;;;;;;;17.65;9.18;;;6.90;99.90;;;;;;5034405;28;20222;-77
2023/01/09 08:28:40;;;;;;;14.20;9.10;;;6.90;99.90;;;;;;5022965;28;21136;-76
2023/01/09 08:31:06;;;;;;;14.70;9.02;;;6.90;99.90;;;;;;5021724;28;20889;-79
2023/01/09 08:33:32;;;;;;;17.30;9.25;;;6.90;99.90;;;;;;5024948;28;20281;-75
2023/01/09 08:35:58;;;;;;;15.13;9.55;;;6.90;99.90;;;;;;5023571;28;20226;-76
2023/01/09 08:38:24;;;;;;;16.23;8.80;;;6.90;99.90;;;;;;5034711;28;20188;-76
2023/01/09 08:40:49;;;;;;;19.55;9.23;;;6.90;99.90;;;;;;5025883;28;20654;-78
2023/01/09 08:48:55;;;;;;;13.48;8.00;;;6.90;99.90;;;;;;5017893;28;20287;-76
2023/01/09 08:51:21;;;;;;;16.67;8.88;;;6.90;99.90;;;;;;5021730;28;20723;-75
2023/01/09 08:53:46;;;;;;;17.17;8.75;;;6.90;99.90;;;;;;5032217;28;20398;-76
2023/01/09 08:56:13;;;;;;;15.18;7.63;;;6.90;99.90;;;;;;5021701;28;20184;-77
2023/01/09 08:58:38;;;;;;;18.77;8.57;;;6.90;99.90;;;;;;5021753;28;20191;-77
2023/01/09 09:01:06;;;;;;;18.25;8.23;;;6.90;99.90;;;;;;5020234;28;20207;-77
2023/01/09 09:03:32;;;;;;;17.02;7.93;;;6.90;99.90;;;;;;5020795;28;22716;-78
2023/01/09 09:05:57;;;;;;;13.18;7.78;;;7.00;99.90;;;;;;5018458;28;20208;-81
2023/01/09 09:08:23;;;;;;;17.75;7.90;;;7.00;99.90;;;;;;5031511;28;22025;-81
2023/01/09 09:10:49;;;;;;;12.85;7.28;;;7.00;99.90;;;;;;5035936;28;20199;-79
2023/01/09 09:13:15;;;;;;;18.33;7.53;;;6.90;99.90;;;;;;5035050;28;20655;-79
2023/01/09 09:15:40;;;;;;;11.35;6.55;;;7.00;99.90;;;;;;5053273;28;20227;-80
2023/01/09 09:18:08;;;;;;;13.57;6.65;;;7.10;99.90;;;;;;5032693;28;20192;-82
2023/01/09 09:20:36;;;;;;;13.25;7.25;;;7.10;99.90;;;;;;5030431;28;20196;-85
2023/01/09 09:23:02;;;;;;;18.70;6.70;;;7.10;99.90;;;;;;5032797;28;20627;-81
2023/01/09 09:25:28;;;;;;;19.23;6.85;;;7.20;99.90;;;;;;5023779;28;20207;-78
2023/01/09 09:27:59;;;;;;;12.05;6.47;;;7.20;99.90;;;;;;5051729;28;20625;-78
2023/01/09 09:30:26;;;;;;;10.82;6.22;;;7.20;99.90;;;;;;5036437;28;20192;-79
2023/01/09 09:32:51;;;;;;;14.40;6.57;;;7.20;99.90;;;;;;5050709;28;20286;-78
2023/01/09 09:35:19;;;;;;;15.82;6.50;;;7.30;99.90;;;;;;5055700;28;20718;-78
2023/01/09 09:38:03;;;;;;;13.00;6.15;;;7.30;99.90;;;;;;5047478;28;20319;-79
2023/01/09 09:40:38;;;;;;;9.95;5.65;;;7.30;99.90;;;;;;5019089;28;20204;-77
2023/01/09 09:46:22;;;;;;;11.90;5.53;;;7.30;99.90;;;;;;5018032;28;20195;-77
2023/01/09 09:48:53;;;;;;;10.95;5.97;;;7.30;99.90;;;;;;5033176;28;20168;-79
2023/01/09 09:51:57;;;;;;;10.38;5.43;;;7.40;99.90;;;;;;5052207;28;20644;-76
2023/01/09 09:54:40;;;;;;;9.07;5.70;;;7.40;99.90;;;;;;5017186;28;20198;-75
2023/01/09 09:57:14;;;;;;;12.38;5.95;;;7.40;99.90;;;;;;5020731;28;20266;-77
2023/01/09 09:59:42;;;;;;;13.90;5.57;;;7.40;99.90;;;;;;5022748;28;20176;-78
2023/01/09 10:02:42;;;;;;;13.43;5.80;;;7.40;99.90;;;;;;5017056;28;20865;-80
2023/01/09 10:05:18;;;;;;;10.82;5.63;;;7.40;99.90;;;;;;5013688;28;20719;-80
2023/01/09 10:07:49;;;;;;;12.18;5.25;;;7.40;99.90;;;;;;5019443;28;20373;-81
2023/01/09 10:10:36;;;;;;;11.45;5.88;;;7.40;99.90;;;;;;5021212;28;20433;-77
2023/01/09 10:16:07;;;;;;;12.85;5.43;;;7.40;99.90;;;;;;5031485;28;20478;-80
2023/01/09 10:19:01;;;;;;;11.73;5.03;;;7.40;99.90;;;;;;5031451;28;20538;-76
2023/01/09 10:21:40;;;;;;;9.82;5.85;;;7.40;99.90;;;;;;5019591;28;22581;-80
2023/01/09 10:24:06;;;;;;;11.23;5.47;;;7.40;99.90;;;;;;5022332;28;20261;-77
2023/01/09 10:26:42;;;;;;;10.40;5.63;;;7.50;99.90;;;;;;5020695;28;20354;-76
2023/01/09 10:29:12;;;;;;;10.20;5.43;;;7.50;99.90;;;;;;5023160;28;20556;-79
2023/01/09 10:32:01;;;;;;;11.82;5.18;;;7.50;99.90;;;;;;5033612;28;20176;-80
2023/01/09 10:34:47;;;;;;;11.85;5.45;;;7.50;99.90;;;;;;5019848;28;20188;-80
2023/01/09 10:37:38;;;;;;;12.05;5.40;;;7.60;99.90;;;;;;5033813;28;20526;-78
2023/01/09 10:40:18;;;;;;;11.52;4.95;;;7.60;99.90;;;;;;5019306;28;20952;-80
2023/01/09 10:43:24;;;;;;;10.38;4.95;;;7.60;99.90;;;;;;5019548;28;20195;-84
2023/01/09 10:45:55;;;;;;;10.05;5.43;;;7.60;99.90;;;;;;4955596;28;20221;-80
2023/01/09 10:48:53;;;;;;;15.55;4.70;;;7.60;99.90;;;;;;4940513;28;20202;-79
2023/01/09 10:51:28;;;;;;;11.55;5.07;;;7.60;99.90;;;;;;4999784;28;20195;-78
2023/01/09 10:53:55;;;;;;;13.02;4.40;;;7.70;99.90;;;;;;5020661;28;20233;-83
2023/01/09 10:56:23;;;;;;;12.73;5.05;;;7.70;99.90;;;;;;5050555;28;20203;-81
2023/01/09 10:58:51;;;;;;;11.20;4.78;;;7.70;99.90;;;;;;5020519;28;20317;-80
2023/01/09 11:01:26;;;;;;;8.98;5.05;;;7.70;99.90;;;;;;5032548;28;20674;-80
2023/01/09 11:03:52;;;;;;;9.20;4.60;;;7.80;99.90;;;;;;5026872;28;20184;-81
2023/01/09 11:06:42;;;;;;;15.23;4.65;;;7.80;99.90;;;;;;5019694;28;20617;-78
2023/01/09 11:09:08;;;;;;;9.25;4.30;;;7.80;99.90;;;;;;5021133;28;20188;-80
2023/01/09 11:11:41;;;;;;;11.23;4.22;;;7.90;99.90;;;;;;5020837;28;20188;-80
2023/01/09 11:14:17;;;;;;;11.10;4.57;;;7.90;99.90;;;;;;5033463;28;20235;-77
2023/01/09 11:16:54;;;;;;;8.25;4.90;;;7.90;99.90;;;;;;5023130;28;20533;-79
2023/01/09 11:19:21;;;;;;;7.90;4.38;;;7.90;99.90;;;;;;5021627;28;20202;-81
2023/01/09 11:21:48;;;;;;;10.20;4.35;;;7.90;99.90;;;;;;5016321;28;20191;-77
2023/01/09 11:24:20;;;;;;;11.43;4.70;;;7.90;99.90;;;;;;5022695;28;20207;-78
2023/01/09 11:26:47;;;;;;;10.65;5.28;;;7.90;99.90;;;;;;5024185;28;20322;-78
2023/01/09 11:29:15;;;;;;;6.88;4.53;;;8.00;99.90;;;;;;5020909;28;20203;-82
2023/01/09 11:31:56;;;;;;;12.52;5.10;;;7.90;99.90;;;;;;5017411;28;20612;-75
2023/01/09 11:34:34;;;;;;;11.98;4.82;;;7.90;99.90;;;;;;5030260;28;20211;-80
2023/01/09 11:37:15;;;;;;;10.55;5.35;;;7.90;99.90;;;;;;5017311;28;20292;-76
2023/01/09 11:39:46;;;;;;;13.75;5.15;;;7.90;99.90;;;;;;5020415;28;20175;-79
2023/01/09 11:45:15;;;;;;;14.95;5.55;;;8.00;99.90;;;;;;5035435;28;20180;-76
2023/01/09 11:47:42;;;;;;;10.98;5.03;;;8.00;99.90;;;;;;5052617;28;20195;-76
2023/01/09 11:50:16;;;;;;;9.75;5.28;;;7.90;99.90;;;;;;5035504;28;20249;-77
2023/01/09 11:52:42;;;;;;;12.95;5.63;;;8.00;99.90;;;;;;5017657;28;20179;-81
2023/01/09 11:55:17;;;;;;;11.20;5.70;;;8.00;99.90;;;;;;5030866;28;20192;-76
2023/01/09 11:57:42;;;;;;;13.95;5.60;;;8.00;99.90;;;;;;5018884;28;20270;-78
2023/01/09 12:00:27;;;;;;;12.27;5.35;;;8.00;99.90;;;;;;5027912;28;20674;-79
2023/01/09 12:03:11;;;;;;;13.35;5.82;;;8.00;99.90;;;;;;5031236;28;20227;-75
2023/01/09 12:05:57;;;;;;;11.55;5.50;;;8.00;99.90;;;;;;5017889;28;20241;-76
2023/01/09 12:09:02;;;;;;;10.68;5.80;;;8.00;99.90;;;;;;5017136;28;20188;-77
2023/01/09 12:11:51;;;;;;;12.48;5.60;;;8.00;99.90;;;;;;4974594;28;20238;-84
2023/01/09 12:14:23;;;;;;;12.80;5.60;;;8.00;99.90;;;;;;5015870;28;20231;-77
2023/01/09 12:16:54;;;;;;;13.18;6.07;;;8.00;99.90;;;;;;5021533;28;20172;-80
2023/01/09 12:19:43;;;;;;;14.75;6.80;;;8.00;99.90;;;;;;5018218;28;20207;-78
2023/01/09 12:22:32;;;;;;;12.43;6.55;;;8.00;99.90;;;;;;5015580;28;20188;-81
2023/01/09 12:25:20;;;;;;;14.13;6.82;;;8.00;99.90;;;;;;5015574;28;20212;-79
2023/01/09 12:28:21;;;;;;;12.07;6.65;;;8.00;99.90;;;;;;5018224;28;20192;-76
2023/01/09 12:31:08;;;;;;;14.75;6.47;;;8.00;99.90;;;;;;5020600;28;22297;-81
2023/01/09 12:33:50;;;;;;;13.15;6.20;;;8.00;99.90;;;;;;5017349;28;20207;-77
2023/01/09 12:36:50;;;;;;;12.70;6.40;;;8.00;99.90;;;;;;5016339;28;20176;-78
2023/01/09 12:39:43;;;;;;;15.60;6.97;;;8.00;99.90;;;;;;5018697;28;20173;-77
2023/01/09 12:42:09;;;;;;;15.02;7.07;;;8.10;99.90;;;;;;5018149;28;20184;-82
2023/01/09 12:44:47;;;;;;;11.73;7.05;;;8.00;99.90;;;;;;5035264;28;20180;-78
2023/01/09 12:47:18;;;;;;;13.13;6.85;;;8.10;99.90;;;;;;5033479;28;20315;-79
2023/01/09 12:50:13;;;;;;;14.32;7.05;;;8.10;99.90;;;;;;5018036;28;20293;-78
2023/01/09 12:53:04;;;;;;;12.68;7.28;;;8.10;99.90;;;;;;4995976;28;20290;-80
2023/01/09 12:55:37;;;;;;;11.98;7.10;;;8.10;99.90;;;;;;5018869;28;20192;-77
2023/01/09 12:58:18;;;;;;;15.73;7.72;;;8.10;99.90;;;;;;5028018;28;20706;-82
2023/01/09 13:00:48;;;;;;;12.30;7.85;;;8.10;99.90;;;;;;5019467;28;20254;-78
2023/01/09 13:03:40;;;;;;;11.93;7.63;;;8.10;99.90;;;;;;5032890;28;20175;-83
2023/01/09 13:06:12;;;;;;;14.60;7.80;;;8.10;99.90;;;;;;5034222;28;20623;-80
2023/01/09 13:08:46;;;;;;;13.13;9.15;;;8.10;99.90;;;;;;5017721;28;20184;-77
2023/01/09 13:11:30;;;;;;;16.52;8.68;;;8.10;99.90;;;;;;5017278;28;20179;-77
2023/01/09 13:14:18;;;;;;;13.52;8.02;;;8.10;99.90;;;;;;5011425;28;20303;-77
2023/01/09 13:16:49;;;;;;;13.60;8.10;;;8.10;99.90;;;;;;5000317;28;20203;-77
2023/01/09 13:19:27;;;;;;;17.30;8.95;;;8.10;99.90;;;;;;5018106;28;21110;-78
2023/01/09 13:21:54;;;;;;;14.55;8.57;;;8.10;99.90;;;;;;5015678;28;20179;-75
2023/01/09 13:24:34;;;;;;;18.00;9.15;;;8.10;99.90;;;;;;5017750;28;20222;-78